Time;durP1;ratioP1;P1;durP2;ratioP2;P2;SDS_P1;SDS_P2;PMS_P1;PMS_P2;Temp;Humidity;BMP_temperature;BMP_pressure;BME280_temperature;BME280_humidity;BME280_pressure;Samples;Min_cycle;Max_cycle;Signal;HPM_P1;HPM_P2
2022/02/27 00:00:26;;;;;;;44.25;15.60;;;;;;;6.24;76.15;101897.41;1829444;78;21209;-59
2022/02/27 00:02:55;;;;;;;58.80;16.12;;;;;;;6.21;76.13;101901.78;1829601;78;21087;-58
2022/02/27 00:05:24;;;;;;;53.60;18.48;;;;;;;6.18;76.10;101894.82;1829554;78;21098;-58
2022/02/27 00:07:53;;;;;;;53.95;17.65;;;;;;;6.15;76.13;101908.75;1847999;77;21081;-59
2022/02/27 00:10:22;;;;;;;55.17;17.42;;;;;;;6.12;76.22;101914.02;1861178;77;21549;-58
2022/02/27 00:12:51;;;;;;;50.60;17.87;;;;;;;6.10;76.32;101907.89;1861278;77;21053;-61
2022/02/27 00:15:20;;;;;;;50.03;16.02;;;;;;;6.06;76.40;101907.91;1861466;77;21657;-62
2022/02/27 00:17:49;;;;;;;45.00;14.93;;;;;;;6.02;76.48;101908.80;1861271;77;21496;-61
2022/02/27 00:20:18;;;;;;;51.45;16.07;;;;;;;6.02;76.51;101908.80;1861032;77;21085;-60
2022/02/27 00:22:46;;;;;;;46.18;16.02;;;;;;;5.96;76.58;101911.84;1861161;77;21089;-60
2022/02/27 00:25:15;;;;;;;48.38;16.35;;;;;;;5.98;76.59;101918.38;1861356;77;21065;-61
2022/02/27 00:27:44;;;;;;;50.08;17.07;;;;;;;6.00;76.62;101925.78;1798207;80;21075;-62
2022/02/27 00:30:13;;;;;;;50.17;16.90;;;;;;;5.98;76.55;101920.55;1798219;80;21063;-60
2022/02/27 00:32:42;;;;;;;50.73;15.88;;;;;;;5.97;76.55;101930.56;1827421;77;21480;-59
2022/02/27 00:35:11;;;;;;;46.33;16.20;;;;;;;5.96;76.47;101921.00;1861267;77;21120;-58
2022/02/27 00:37:40;;;;;;;59.08;20.23;;;;;;;5.95;76.45;101927.08;1861158;77;21026;-59
2022/02/27 00:40:10;;;;;;;60.75;17.65;;;;;;;5.91;76.48;101933.16;1861135;77;21547;-58
2022/02/27 00:42:38;;;;;;;59.73;19.10;;;;;;;5.90;76.46;101932.74;1861437;77;21045;-59
2022/02/27 00:45:08;;;;;;;61.65;19.85;;;;;;;5.84;76.53;101930.55;1861123;77;21017;-62
2022/02/27 00:47:38;;;;;;;60.40;16.90;;;;;;;5.83;76.55;101939.25;1865850;77;21222;-61
2022/02/27 00:50:08;;;;;;;59.50;17.37;;;;;;;5.83;76.60;101943.17;1866676;77;21026;-61
2022/02/27 00:55:27;;;;;;;52.75;17.67;;;;;;;5.85;76.54;101951.91;1855356;76;21067;-58
2022/02/27 00:57:56;;;;;;;46.83;14.73;;;;;;;5.85;76.49;101961.92;1851352;77;21141;-59
2022/02/27 01:00:25;;;;;;;56.13;17.55;;;;;;;5.86;76.41;101953.64;1848314;78;21042;-58
2022/02/27 01:02:54;;;;;;;50.58;15.93;;;;;;;5.82;76.47;101953.21;1848143;78;21054;-58
2022/02/27 04:53:08;;;;;;;37.17;13.62;;;;;;;5.45;76.04;102148.66;1909245;74;21666;-57
2022/02/27 04:55:37;;;;;;;39.08;13.75;;;;;;;5.47;76.08;102148.67;1925039;74;21054;-57
2022/02/27 04:58:06;;;;;;;38.17;15.18;;;;;;;5.48;76.02;102152.61;1917771;74;21035;-59
2022/02/27 05:00:35;;;;;;;39.50;14.30;;;;;;;5.51;75.92;102153.91;1912761;75;21055;-59
2022/02/27 05:05:53;;;;;;;40.23;14.33;;;;;;;5.50;76.05;102147.39;1853059;77;21511;-59
2022/02/27 05:08:22;;;;;;;35.17;13.83;;;;;;;5.53;75.93;102147.38;1853101;77;21082;-59
2022/02/27 05:10:51;;;;;;;35.00;13.53;;;;;;;5.53;75.81;102148.69;1853203;77;21061;-58
2022/02/27 05:13:19;;;;;;;35.58;14.40;;;;;;;5.54;75.75;102149.14;1853096;77;21160;-57
2022/02/27 05:15:48;;;;;;;38.90;14.70;;;;;;;5.57;75.74;102157.88;1853077;77;21496;-58
2022/02/27 05:18:17;;;;;;;36.03;12.80;;;;;;;5.63;75.68;102154.41;1853168;77;21108;-59
2022/02/27 05:20:46;;;;;;;37.28;13.35;;;;;;;5.65;75.63;102163.13;1826072;77;21047;-57
2022/02/27 05:23:15;;;;;;;34.15;13.98;;;;;;;5.65;75.71;102163.57;1858571;77;21515;-59
2022/02/27 05:25:44;;;;;;;27.30;10.75;;;;;;;5.66;75.69;102161.38;1860241;77;21589;-59
2022/02/27 05:28:12;;;;;;;40.83;13.22;;;;;;;5.68;75.48;102157.92;1860266;77;21571;-59
2022/02/27 05:30:41;;;;;;;38.83;13.32;;;;;;;5.68;75.29;102157.92;1859532;77;21060;-59
2022/02/27 05:33:14;;;;;;;33.55;13.72;;;;;;;5.71;75.23;102165.75;1860344;77;21061;-60
2022/02/27 05:35:43;;;;;;;30.57;12.82;;;;;;;5.78;75.16;102170.14;1860566;77;21115;-60
2022/02/27 05:38:12;;;;;;;27.87;13.10;;;;;;;5.85;75.00;102164.95;1860225;77;21115;-59
2022/02/27 05:40:41;;;;;;;31.95;13.15;;;;;;;5.90;74.97;102167.12;1859560;77;21070;-60
2022/02/27 05:43:10;;;;;;;31.65;13.38;;;;;;;5.87;74.96;102171.06;1860112;77;21503;-60
2022/02/27 05:45:38;;;;;;;38.10;12.88;;;;;;;5.91;75.01;102168.45;1858443;77;21058;-58
2022/02/27 05:48:07;;;;;;;33.35;13.28;;;;;;;6.02;74.96;102171.12;1853112;77;21164;-58
2022/02/27 05:50:36;;;;;;;29.48;11.63;;;;;;;6.11;74.73;102176.38;1846667;77;21107;-58
2022/02/27 05:53:05;;;;;;;36.93;13.98;;;;;;;6.19;74.53;102179.88;1860296;77;21045;-58
2022/02/27 05:55:33;;;;;;;28.90;11.88;;;;;;;6.27;74.39;102185.56;1860196;77;21082;-57
2022/02/27 05:58:03;;;;;;;28.38;10.88;;;;;;;6.31;74.20;102182.10;1860329;77;21566;-59
2022/02/27 06:00:32;;;;;;;25.50;10.38;;;;;;;6.31;73.87;102182.10;1859832;77;21519;-57
2022/02/27 06:03:00;;;;;;;30.10;13.00;;;;;;;6.28;73.76;102178.16;1859594;77;21113;-59
2022/02/27 06:05:29;;;;;;;30.62;10.45;;;;;;;6.21;73.67;102182.50;1851760;77;21093;-58
2022/02/27 06:07:58;;;;;;;29.55;11.15;;;;;;;6.23;73.66;102182.50;1848875;77;21500;-60
2022/02/27 06:10:27;;;;;;;31.00;11.70;;;;;;;6.29;73.70;102185.13;1849281;77;21128;-59
2022/02/27 06:12:56;;;;;;;29.25;10.75;;;;;;;6.32;73.73;102187.75;1849249;76;21061;-58
2022/02/27 06:15:25;;;;;;;26.52;11.53;;;;;;;6.35;73.59;102189.08;1849336;77;21123;-58
2022/02/27 06:17:54;;;;;;;27.87;10.55;;;;;;;6.37;73.47;102190.81;1849232;77;21503;-59
2022/02/27 06:20:23;;;;;;;28.15;11.15;;;;;;;6.46;73.45;102193.89;1819513;77;21144;-59
2022/02/27 06:22:52;;;;;;;27.67;11.00;;;;;;;6.58;73.34;102198.25;1786326;80;21149;-59
2022/02/27 06:25:21;;;;;;;27.58;11.08;;;;;;;6.63;72.91;102199.14;1786210;80;21181;-59
2022/02/27 06:27:50;;;;;;;29.60;13.45;;;;;;;6.65;72.78;102203.06;1786236;79;21551;-59
2022/02/27 06:30:21;;;;;;;24.02;9.75;;;;;;;6.68;72.50;102201.77;1786271;80;21532;-60
2022/02/27 06:32:52;;;;;;;26.35;11.15;;;;;;;6.67;72.43;102205.25;1786288;80;21063;-59
2022/02/27 06:35:22;;;;;;;30.05;10.48;;;;;;;6.63;72.52;102201.75;1778590;80;21093;-60
2022/02/27 06:37:57;;;;;;;26.50;12.15;;;;;;;6.60;72.33;102206.97;1787468;79;21486;-61
2022/02/27 06:40:23;;;;;;;29.85;11.63;;;;;;;6.64;72.36;102207.85;1858628;77;21124;-61
2022/02/27 06:42:52;;;;;;;26.40;11.15;;;;;;;6.72;72.24;102203.52;1857634;77;21540;-59
2022/02/27 06:45:21;;;;;;;26.73;10.82;;;;;;;6.69;71.25;102216.59;1857681;77;21065;-61
2022/02/27 06:47:49;;;;;;;23.83;9.98;;;;;;;6.66;71.87;102214.86;1857768;77;21139;-60
2022/02/27 06:50:18;;;;;;;29.98;13.85;;;;;;;6.64;71.73;102213.09;1857748;77;21060;-59
2022/02/27 06:52:47;;;;;;;28.67;11.57;;;;;;;6.64;71.61;102217.02;1848663;76;21053;-59
2022/02/27 06:55:16;;;;;;;33.78;12.15;;;;;;;6.55;71.51;102221.83;1846909;78;21057;-60
2022/02/27 06:57:46;;;;;;;30.88;12.15;;;;;;;6.57;71.70;102224.00;1846947;78;21479;-60
2022/02/27 07:00:16;;;;;;;31.95;12.47;;;;;;;6.65;71.68;102214.41;1846757;77;21120;-61
2022/02/27 07:02:46;;;;;;;32.85;13.28;;;;;;;6.67;71.55;102221.81;1847026;78;21071;-61
2022/02/27 07:05:15;;;;;;;29.52;11.97;;;;;;;6.67;71.56;102217.03;1851944;76;21194;-61
2022/02/27 07:07:44;;;;;;;30.97;12.20;;;;;;;6.70;71.56;102214.42;1886161;76;21042;-60
2022/02/27 07:10:13;;;;;;;32.67;12.82;;;;;;;6.72;71.42;102210.06;1886176;76;21132;-60
2022/02/27 07:12:43;;;;;;;30.40;12.45;;;;;;;6.79;71.41;102199.13;1886095;76;21115;-59
2022/02/27 07:15:12;;;;;;;28.70;12.25;;;;;;;6.87;71.27;102206.12;1886163;76;21042;-58
2022/02/27 07:17:40;;;;;;;31.73;12.47;;;;;;;6.88;71.12;102209.60;1911675;75;21092;-60
2022/02/27 07:20:10;;;;;;;31.05;13.05;;;;;;;6.68;71.06;102209.63;1914988;75;21058;-59
2022/02/27 07:22:39;;;;;;;30.62;12.70;;;;;;;6.63;71.40;102208.74;1915052;75;21036;-59
2022/02/27 07:25:10;;;;;;;25.75;11.00;;;;;;;6.66;71.45;102205.69;1914883;75;21077;-62
2022/02/27 07:27:39;;;;;;;27.65;11.95;;;;;;;6.72;71.31;102212.23;1898068;75;21030;-61
2022/02/27 07:30:08;;;;;;;29.40;11.25;;;;;;;6.74;71.19;102210.92;1890740;75;21029;-61
2022/02/27 07:32:37;;;;;;;30.45;12.23;;;;;;;6.75;71.10;102215.27;1890317;75;21091;-60
2022/02/27 07:35:06;;;;;;;28.75;11.20;;;;;;;6.77;71.02;102210.94;1888957;76;21533;-59
2022/02/27 07:37:36;;;;;;;34.88;13.32;;;;;;;6.79;70.96;102214.42;1888825;76;21054;-62
2022/02/27 07:40:08;;;;;;;29.65;12.00;;;;;;;6.86;70.79;102212.25;1888986;76;21467;-61
2022/02/27 07:42:37;;;;;;;26.27;10.30;;;;;;;6.95;70.74;102213.97;1888815;76;20997;-60
2022/02/27 07:45:07;;;;;;;27.25;10.85;;;;;;;7.10;70.61;102212.67;1889878;76;21132;-61
2022/02/27 07:47:36;;;;;;;26.17;11.45;;;;;;;6.97;70.35;102210.91;1890472;74;21017;-60
2022/02/27 07:50:06;;;;;;;26.65;11.28;;;;;;;6.90;70.42;102210.06;1890353;76;21022;-62
2022/02/27 07:52:34;;;;;;;26.17;11.33;;;;;;;6.91;70.30;102206.55;1890466;76;21030;-61
2022/02/27 07:55:03;;;;;;;27.15;10.75;;;;;;;6.99;70.44;102203.05;1888313;76;21026;-61
2022/02/27 07:57:32;;;;;;;24.37;10.28;;;;;;;7.18;70.35;102200.86;1886268;76;21022;-61
2022/02/27 08:00:01;;;;;;;27.65;10.90;;;;;;;7.42;70.08;102195.14;1887024;75;21042;-62
2022/02/27 08:02:31;;;;;;;24.75;10.40;;;;;;;7.74;69.73;102193.72;1868760;75;21093;-59
2022/02/27 08:05:00;;;;;;;23.95;10.43;;;;;;;8.06;69.28;102195.30;1890437;76;21206;-60
2022/02/27 08:07:28;;;;;;;23.35;10.23;;;;;;;8.34;68.65;102197.35;1891353;75;21115;-61
2022/02/27 08:09:57;;;;;;;20.65;9.50;;;;;;;8.65;68.10;102194.52;1897308;74;21512;-61
2022/02/27 08:12:27;;;;;;;22.40;9.35;;;;;;;8.75;67.55;102198.83;1885448;76;21476;-60
2022/02/27 08:14:55;;;;;;;24.87;10.48;;;;;;;8.62;66.51;102199.37;1886100;76;21559;-60
2022/02/27 08:17:25;;;;;;;22.32;9.80;;;;;;;8.50;67.22;102200.34;1886040;76;21137;-60
2022/02/27 08:19:54;;;;;;;21.87;9.30;;;;;;;8.36;67.24;102202.15;1886157;76;21508;-61
2022/02/27 08:22:22;;;;;;;23.30;10.13;;;;;;;8.28;67.56;102202.61;1887296;74;21443;-59
2022/02/27 08:24:51;;;;;;;23.05;9.85;;;;;;;8.25;67.49;102206.59;1889833;76;21126;-60
2022/02/27 08:27:20;;;;;;;18.67;8.68;;;;;;;8.23;67.71;102204.42;1889816;76;21040;-60
2022/02/27 08:29:55;;;;;;;18.67;9.43;;;;;;;8.34;67.64;102206.54;1889766;76;21144;-61
2022/02/27 08:32:19;;;;;;;18.15;8.18;;;;;;;8.40;67.14;102207.80;1891099;75;21072;-61
2022/02/27 08:34:48;;;;;;;16.17;7.47;;;;;;;8.31;67.22;102205.23;1886140;76;21107;-60
2022/02/27 08:37:17;;;;;;;18.75;9.18;;;;;;;8.25;67.18;102205.28;1886170;76;21116;-60
2022/02/27 08:39:45;;;;;;;17.00;8.60;;;;;;;8.28;67.37;102201.30;1886241;76;21070;-61
2022/02/27 08:42:14;;;;;;;17.05;7.67;;;;;;;8.40;67.39;102206.94;1885997;76;21066;-59
2022/02/27 08:44:43;;;;;;;20.62;9.60;;;;;;;8.55;67.11;102204.68;1888091;75;21054;-62
2022/02/27 08:47:11;;;;;;;19.67;9.18;;;;;;;8.69;66.73;102208.08;1886351;76;21026;-60
2022/02/27 08:49:40;;;;;;;16.37;8.03;;;;;;;8.77;66.34;102206.25;1886255;76;21082;-61
2022/02/27 08:52:09;;;;;;;22.90;9.80;;;;;;;8.81;66.19;102205.34;1886129;76;21102;-58
2022/02/27 08:54:38;;;;;;;16.75;8.28;;;;;;;8.79;66.05;102201.85;1898207;75;21147;-60
2022/02/27 08:57:06;;;;;;;17.17;8.85;;;;;;;8.84;65.96;102201.38;1893481;75;21057;-60
2022/02/27 08:59:35;;;;;;;17.12;8.15;;;;;;;8.84;65.42;102200.52;1889166;76;21464;-61
2022/02/27 09:02:05;;;;;;;20.35;8.00;;;;;;;8.79;65.19;102201.85;1890411;76;21124;-59
2022/02/27 09:04:33;;;;;;;21.50;10.53;;;;;;;8.81;65.44;102207.09;1890406;76;21550;-61
2022/02/27 09:07:02;;;;;;;18.87;7.92;;;;;;;8.84;65.21;102200.06;1890353;75;21053;-59
2022/02/27 09:09:31;;;;;;;21.77;8.80;;;;;;;8.70;65.11;102204.55;1890299;75;21143;-60
2022/02/27 09:12:00;;;;;;;21.00;8.80;;;;;;;8.67;65.27;102204.59;1889987;76;21463;-60
2022/02/27 09:14:29;;;;;;;22.65;9.28;;;;;;;8.67;65.24;102200.66;1889120;76;21064;-60
2022/02/27 09:16:57;;;;;;;22.40;9.60;;;;;;;8.84;65.18;102200.06;1888985;76;21037;-60
2022/02/27 09:19:27;;;;;;;23.12;10.95;;;;;;;9.01;64.65;102189.86;1888952;75;21119;-60
2022/02/27 09:21:55;;;;;;;18.42;9.98;;;;;;;9.11;64.54;102190.21;1885963;76;21480;-59
2022/02/27 09:24:25;;;;;;;24.23;10.23;;;;;;;9.06;64.20;102197.26;1888017;75;21127;-59
2022/02/27 09:26:53;;;;;;;22.55;10.45;;;;;;;9.05;64.24;102187.17;1886136;76;21504;-60
2022/02/27 09:29:23;;;;;;;23.05;10.85;;;;;;;9.08;64.20;102192.86;1888138;75;21574;-60
2022/02/27 09:31:54;;;;;;;22.20;8.90;;;;;;;9.12;64.12;102185.81;1886349;76;21128;-60
2022/02/27 09:34:23;;;;;;;25.80;11.25;;;;;;;9.15;64.23;102187.97;1886118;76;21069;-60
2022/02/27 09:36:54;;;;;;;18.77;9.03;;;;;;;9.04;63.74;102183.27;1907194;75;21104;-58
2022/02/27 09:39:23;;;;;;;29.40;10.40;;;;;;;9.00;63.91;102181.53;1886259;76;21038;-63
2022/02/27 09:41:51;;;;;;;21.48;10.15;;;;;;;8.99;63.89;102182.44;1886213;76;21074;-60
2022/02/27 09:44:20;;;;;;;18.55;8.58;;;;;;;8.93;63.79;102183.36;1901440;75;21026;-60
2022/02/27 09:46:50;;;;;;;21.95;10.03;;;;;;;8.68;63.93;102184.86;1915003;75;21101;-61
2022/02/27 09:49:18;;;;;;;23.90;10.23;;;;;;;8.52;64.14;102179.75;1904226;75;21088;-66
2022/02/27 09:51:47;;;;;;;22.32;10.43;;;;;;;8.42;64.10;102182.44;1886160;76;21015;-64
2022/02/27 09:54:17;;;;;;;17.50;8.33;;;;;;;8.34;64.25;102189.89;1883414;76;21512;-62
2022/02/27 09:56:46;;;;;;;25.85;11.40;;;;;;;8.20;64.14;102188.23;1890441;76;21537;-63
2022/02/27 09:59:14;;;;;;;20.95;9.85;;;;;;;8.14;64.62;102188.73;1890572;75;21065;-64
2022/02/27 10:02:01;;;;;;;31.25;11.68;;;;;;;8.15;64.80;102185.21;1890489;76;21053;-61
2022/02/27 10:04:38;;;;;;;28.00;12.37;;;;;;;8.00;64.77;102185.72;1911697;75;21121;-61
2022/02/27 10:07:15;;;;;;;26.45;12.23;;;;;;;7.92;64.96;102185.77;1915068;75;21107;-60
2022/02/27 10:09:44;;;;;;;25.32;11.18;;;;;;;7.99;65.16;102181.82;1914884;75;21558;-60
2022/02/27 10:12:21;;;;;;;33.92;10.90;;;;;;;8.11;65.12;102177.38;1914988;75;21015;-60
2022/02/27 10:15:04;;;;;;;28.67;12.15;;;;;;;8.24;64.90;102185.16;1915106;75;21150;-60
2022/02/27 10:17:42;;;;;;;27.30;11.75;;;;;;;8.32;64.72;102182.06;1915089;75;21038;-60
2022/02/27 10:20:16;;;;;;;29.90;11.97;;;;;;;8.39;64.68;102182.45;1914993;75;21092;-60
2022/02/27 10:22:48;;;;;;;30.90;13.32;;;;;;;8.46;64.45;102184.61;1914984;75;21053;-60
2022/02/27 10:25:22;;;;;;;27.75;13.30;;;;;;;8.40;64.45;102178.92;1915111;74;21488;-60
2022/02/27 10:27:54;;;;;;;38.63;13.30;;;;;;;8.38;64.44;102175.45;1915090;75;21120;-60
2022/02/27 10:30:31;;;;;;;31.30;11.60;;;;;;;8.34;64.46;102175.05;1914986;75;21095;-60
2022/02/27 10:33:03;;;;;;;25.80;11.43;;;;;;;8.32;64.59;102178.13;1914978;74;21065;-59
2022/02/27 10:35:40;;;;;;;28.20;13.38;;;;;;;8.29;64.63;102179.00;1914964;75;21026;-61
2022/02/27 10:41:14;;;;;;;22.95;10.40;;;;;;;8.34;64.54;102173.73;1913127;75;21042;-60
2022/02/27 10:43:43;;;;;;;30.17;10.25;;;;;;;8.26;64.35;102177.72;1914977;75;21516;-60
2022/02/27 10:46:14;;;;;;;23.77;11.63;;;;;;;8.25;64.33;102165.92;1914968;75;21464;-60
2022/02/27 10:48:43;;;;;;;23.90;11.25;;;;;;;8.33;64.31;102179.84;1914960;75;21511;-60
2022/02/27 10:51:14;;;;;;;28.62;12.43;;;;;;;8.42;63.73;102177.64;1915062;75;21100;-59
2022/02/27 10:53:47;;;;;;;25.32;11.57;;;;;;;8.47;63.98;102167.53;1914945;75;21570;-60
2022/02/27 10:56:17;;;;;;;28.05;12.25;;;;;;;8.49;63.72;102169.70;1915262;75;21013;-60
2022/02/27 10:58:50;;;;;;;27.65;10.93;;;;;;;8.41;63.89;102171.50;1914981;75;21550;-60
2022/02/27 11:01:23;;;;;;;28.40;12.73;;;;;;;8.26;63.96;102174.20;1915249;75;21030;-60
2022/02/27 11:03:53;;;;;;;30.32;13.13;;;;;;;8.21;64.19;102178.64;1914980;75;21099;-60
2022/02/27 11:06:23;;;;;;;27.55;11.35;;;;;;;8.12;64.31;102172.55;1914962;75;21538;-60
2022/02/27 11:08:52;;;;;;;26.62;11.35;;;;;;;7.93;64.34;102177.48;1914937;75;21128;-60
2022/02/27 11:11:21;;;;;;;27.82;11.03;;;;;;;7.83;64.77;102174.45;1914943;74;21033;-60
2022/02/27 11:13:53;;;;;;;31.02;13.22;;;;;;;7.83;64.73;102178.39;1915165;75;21543;-60
2022/02/27 11:16:41;;;;;;;28.83;13.03;;;;;;;7.86;64.77;102177.07;1863824;77;21682;-60
2022/02/27 11:19:11;;;;;;;37.08;12.80;;;;;;;7.86;64.68;102177.07;1864100;77;21057;-60
2022/02/27 11:21:40;;;;;;;34.15;13.30;;;;;;;7.78;64.87;102176.22;1863991;77;21774;-60
2022/02/27 11:24:11;;;;;;;32.00;13.22;;;;;;;7.74;65.07;102184.09;1863981;75;21033;-60
2022/02/27 11:26:39;;;;;;;32.38;13.08;;;;;;;7.71;65.04;102184.12;1864010;77;21039;-61
2022/02/27 11:29:10;;;;;;;30.95;13.05;;;;;;;7.79;64.98;102187.16;1863958;77;21025;-60
2022/02/27 11:31:40;;;;;;;29.48;13.65;;;;;;;7.83;64.93;102188.88;1864045;77;21053;-60
2022/02/27 11:34:13;;;;;;;32.67;12.58;;;;;;;7.83;64.93;102191.50;1864126;77;21065;-60
2022/02/27 11:36:45;;;;;;;34.92;13.38;;;;;;;7.73;64.97;102187.61;1864106;77;21053;-60
2022/02/27 11:41:47;;;;;;;28.87;13.38;;;;;;;7.69;65.24;102176.70;1879163;75;21069;-60
2022/02/27 11:44:16;;;;;;;28.70;13.83;;;;;;;7.73;65.05;102178.87;1864026;77;21127;-60
2022/02/27 11:46:48;;;;;;;30.20;13.25;;;;;;;7.73;64.98;102181.05;1863996;76;21064;-60
2022/02/27 11:49:22;;;;;;;40.30;13.55;;;;;;;7.79;65.00;102175.36;1864064;77;21049;-60
2022/02/27 11:52:03;;;;;;;33.33;13.68;;;;;;;7.76;64.84;102177.53;1864002;77;21191;-60
2022/02/27 11:54:52;;;;;;;27.05;11.20;;;;;;;7.77;65.01;102179.29;1854549;77;21076;-59
2022/02/27 11:57:23;;;;;;;33.53;12.80;;;;;;;7.82;64.93;102175.31;1864102;77;21115;-60
2022/02/27 11:59:57;;;;;;;30.00;11.85;;;;;;;7.78;64.67;102173.59;1864237;77;21092;-60
2022/02/27 12:02:29;;;;;;;25.20;10.10;;;;;;;7.72;64.67;102171.42;1863873;77;21143;-59
2022/02/27 12:05:00;;;;;;;30.88;11.85;;;;;;;7.76;64.65;102171.42;1864424;75;21499;-59
2022/02/27 12:07:29;;;;;;;28.55;12.47;;;;;;;7.81;64.56;102169.66;1864008;77;21057;-60
2022/02/27 12:10:02;;;;;;;27.17;10.98;;;;;;;7.80;64.53;102171.42;1864105;77;21052;-60
2022/02/27 12:12:43;;;;;;;27.70;11.80;;;;;;;7.79;64.37;102175.36;1864056;77;21091;-61
2022/02/27 12:15:25;;;;;;;31.87;10.95;;;;;;;7.74;64.41;102180.60;1863983;76;21021;-60
2022/02/27 12:18:07;;;;;;;25.17;11.28;;;;;;;7.62;64.54;102180.22;1861947;73;21171;-60
2022/02/27 12:21:02;;;;;;;29.87;11.70;;;;;;;7.59;64.68;102185.47;1858290;77;21018;-60
2022/02/27 12:23:43;;;;;;;29.48;10.80;;;;;;;7.56;64.70;102184.16;1858531;77;21163;-60
2022/02/27 12:26:08;;;;;;;28.35;11.85;;;;;;;7.47;64.88;102194.67;1856799;77;21018;-60
2022/02/27 12:28:55;;;;;;;31.23;11.43;;;;;;;7.44;65.04;102196.02;1858714;77;21037;-60
2022/02/27 12:31:27;;;;;;;29.10;12.28;;;;;;;7.40;65.05;102196.91;1858448;77;21014;-60
2022/02/27 12:33:58;;;;;;;25.90;11.85;;;;;;;7.31;64.97;102196.48;1858558;77;21042;-60
2022/02/27 12:36:38;;;;;;;30.17;13.35;;;;;;;7.27;65.28;102197.37;1858566;77;21041;-60
2022/02/27 12:39:09;;;;;;;29.12;10.95;;;;;;;7.33;65.19;102199.52;1858581;77;21109;-60
2022/02/27 12:41:40;;;;;;;25.17;11.22;;;;;;;7.30;64.90;102194.72;1858456;77;21046;-59
2022/02/27 12:44:11;;;;;;;32.88;12.93;;;;;;;7.24;65.00;102206.08;1858074;77;21567;-60
2022/02/27 12:46:40;;;;;;;29.30;13.08;;;;;;;7.18;65.09;102200.00;1858636;77;21088;-59
2022/02/27 12:51:57;;;;;;;24.75;11.03;;;;;;;7.19;65.24;102195.18;1858523;77;21077;-60
2022/02/27 12:54:34;;;;;;;29.07;11.30;;;;;;;7.15;65.25;102193.00;1858409;77;21066;-60
2022/02/27 12:57:01;;;;;;;28.77;10.93;;;;;;;7.09;65.32;102200.88;1858170;77;21049;-59
2022/02/27 12:59:31;;;;;;;27.93;11.80;;;;;;;7.14;65.27;102200.00;1858653;77;21104;-59
2022/02/27 13:02:01;;;;;;;28.45;11.63;;;;;;;7.12;65.12;102199.58;1863480;76;21105;-60
2022/02/27 13:04:32;;;;;;;34.35;11.15;;;;;;;7.12;65.17;102198.27;1859929;76;21073;-63
2022/02/27 13:07:07;;;;;;;26.68;10.93;;;;;;;7.06;65.34;102193.02;1862653;76;21052;-62
2022/02/27 13:09:37;;;;;;;25.48;10.23;;;;;;;7.03;65.50;102189.97;1885606;76;21043;-60
2022/02/27 13:12:12;;;;;;;28.40;11.05;;;;;;;7.07;65.38;102199.56;1885683;76;21056;-60
2022/02/27 13:14:46;;;;;;;31.27;11.90;;;;;;;7.11;65.34;102205.23;1885423;76;21100;-60
2022/02/27 13:17:26;;;;;;;35.95;13.00;;;;;;;7.16;65.24;102198.69;1883070;76;21080;-61
2022/02/27 13:19:57;;;;;;;28.17;12.10;;;;;;;7.19;65.17;102202.59;1867487;76;21144;-62
2022/02/27 13:22:28;;;;;;;33.60;12.37;;;;;;;7.17;65.30;102199.11;1852663;77;21112;-64
2022/02/27 13:24:59;;;;;;;29.07;11.03;;;;;;;7.18;65.31;102207.86;1852440;76;21122;-67
2022/02/27 13:27:31;;;;;;;28.42;10.95;;;;;;;7.18;65.33;102207.41;1829336;77;21034;-67
2022/02/27 13:30:03;;;;;;;25.15;11.63;;;;;;;7.12;65.26;102204.37;1852588;77;21078;-64
2022/02/27 13:32:34;;;;;;;26.12;10.98;;;;;;;7.04;65.44;102197.38;1849767;77;21441;-67
2022/02/27 13:35:12;;;;;;;26.10;10.00;;;;;;;6.94;65.56;102200.02;1852881;77;21140;-60
2022/02/27 13:37:44;;;;;;;24.50;10.32;;;;;;;6.91;65.60;102201.31;1852602;77;21144;-66
2022/02/27 13:40:17;;;;;;;25.32;9.98;;;;;;;6.82;65.64;102200.45;1852375;77;21101;-65
2022/02/27 13:42:48;;;;;;;22.50;9.68;;;;;;;6.72;66.01;102200.89;1852505;77;21075;-64
2022/02/27 13:45:32;;;;;;;19.67;7.78;;;;;;;6.71;66.12;102205.68;1852462;77;21176;-63
2022/02/27 13:48:08;;;;;;;26.12;9.10;;;;;;;6.72;66.01;102201.76;1852116;77;21093;-63
2022/02/27 13:50:40;;;;;;;24.77;9.80;;;;;;;6.74;65.81;102204.38;1852382;77;21107;-63
2022/02/27 13:53:15;;;;;;;27.00;10.48;;;;;;;6.77;65.68;102204.39;1852476;77;21050;-63
2022/02/27 13:55:46;;;;;;;28.45;11.53;;;;;;;6.75;65.65;102208.73;1856489;76;21053;-63
2022/02/27 13:58:20;;;;;;;22.52;9.98;;;;;;;6.68;65.73;102208.31;1879110;76;21048;-63
2022/02/27 14:00:52;;;;;;;;;;;;;;;6.61;65.95;102208.73;1881874;76;21150;-62
2022/02/27 14:03:23;;;;;;;21.55;9.08;;;;;;;6.68;65.96;102220.09;1879005;76;20437;-62
2022/02/27 14:06:00;;;;;;;26.87;10.85;;;;;;;6.62;65.91;102222.27;1874874;76;21128;-63
2022/02/27 14:08:30;;;;;;;26.15;11.12;;;;;;;6.68;65.84;102225.33;1851095;76;21122;-62
2022/02/27 14:11:16;;;;;;;26.62;10.75;;;;;;;6.66;65.85;102221.81;1848617;77;21047;-62
2022/02/27 14:13:50;;;;;;;26.15;11.22;;;;;;;6.61;65.94;102227.50;1848508;78;21074;-62
2022/02/27 14:16:30;;;;;;;28.25;10.50;;;;;;;6.55;66.08;102224.44;1848566;78;21509;-63
2022/02/27 14:19:01;;;;;;;26.30;10.93;;;;;;;6.45;66.22;102233.13;1847412;76;21073;-62
2022/02/27 14:21:32;;;;;;;32.98;14.75;;;;;;;6.46;66.23;102238.38;1848777;76;21074;-63
2022/02/27 14:24:10;;;;;;;34.18;12.98;;;;;;;6.44;66.38;102240.12;1859536;75;21133;-64
2022/02/27 14:26:42;;;;;;;35.17;13.88;;;;;;;6.47;66.40;102233.56;1861247;77;21074;-63
2022/02/27 14:29:13;;;;;;;34.98;12.68;;;;;;;6.53;66.27;102231.42;1861496;75;21101;-62
2022/02/27 14:31:50;;;;;;;33.90;14.15;;;;;;;6.52;66.26;102229.66;1840866;77;21498;-63
2022/02/27 14:34:21;;;;;;;25.77;10.35;;;;;;;6.52;66.28;102234.45;1837386;78;21105;-63
2022/02/27 14:36:51;;;;;;;31.65;11.65;;;;;;;6.51;66.26;102232.72;1843628;76;21520;-60
2022/02/27 14:39:22;;;;;;;32.78;11.50;;;;;;;6.47;66.37;102238.80;1841657;77;21066;-62
2022/02/27 14:41:51;;;;;;;36.80;15.65;;;;;;;6.37;66.64;102239.66;1846215;77;21076;-62
2022/02/27 14:44:19;;;;;;;34.40;13.15;;;;;;;6.30;66.87;102243.98;1855608;77;21057;-65
2022/02/27 14:46:50;;;;;;;31.40;12.07;;;;;;;6.29;66.95;102238.75;1855668;77;21053;-63
2022/02/27 14:49:18;;;;;;;33.42;13.08;;;;;;;6.27;67.01;102237.88;1855775;77;21061;-65
2022/02/27 14:51:47;;;;;;;38.23;14.63;;;;;;;6.17;67.21;102233.92;1855628;76;21053;-65
2022/02/27 14:54:15;;;;;;;32.55;13.48;;;;;;;6.07;67.45;102237.39;1849044;77;21042;-65
2022/02/27 14:56:44;;;;;;;34.27;13.83;;;;;;;6.10;67.53;102241.31;1841107;78;21125;-65
2022/02/27 14:59:13;;;;;;;37.60;13.98;;;;;;;6.13;67.40;102254.41;1840955;78;21074;-65
2022/02/27 15:01:43;;;;;;;37.83;14.40;;;;;;;6.17;67.23;102254.85;1840969;78;21126;-64
2022/02/27 15:04:15;;;;;;;36.60;15.20;;;;;;;6.17;67.20;102257.47;1841237;76;21050;-65
2022/02/27 15:06:42;;;;;;;29.23;12.58;;;;;;;6.14;67.21;102257.48;1841057;78;21056;-64
2022/02/27 15:09:12;;;;;;;29.25;14.20;;;;;;;6.10;67.20;102254.38;1841020;78;21197;-64
2022/02/27 15:11:41;;;;;;;35.17;14.45;;;;;;;6.07;67.19;102261.34;1841098;78;21176;-64
2022/02/27 15:14:10;;;;;;;42.17;15.85;;;;;;;6.02;67.37;102256.11;1841017;78;21156;-64
2022/02/27 15:16:38;;;;;;;47.00;16.90;;;;;;;5.98;67.59;102264.37;1841145;78;21454;-64
2022/02/27 15:19:07;;;;;;;45.15;15.55;;;;;;;5.96;67.73;102267.86;1847436;76;21082;-64
2022/02/27 15:21:36;;;;;;;39.38;14.38;;;;;;;5.92;67.89;102274.78;1852137;76;21074;-65
2022/02/27 15:24:08;;;;;;;51.10;15.83;;;;;;;5.93;67.89;102280.87;1843664;77;21062;-63
2022/02/27 15:26:37;;;;;;;35.35;13.20;;;;;;;5.94;67.83;102283.50;1816039;77;21164;-60
2022/02/27 15:29:06;;;;;;;35.30;13.78;;;;;;;5.91;67.88;102286.09;1833855;77;21025;-61
2022/02/27 15:31:35;;;;;;;35.68;12.75;;;;;;;5.77;68.28;102289.95;1860946;77;21089;-66
2022/02/27 15:34:05;;;;;;;32.85;12.93;;;;;;;5.69;68.51;102290.33;1860988;77;21118;-62
2022/02/27 15:36:34;;;;;;;28.35;11.45;;;;;;;5.67;68.48;102289.88;1860937;77;21436;-62